sensor_id;sensor_type;location;lat;lon;timestamp;P1;durP1;ratioP1;P2;durP2;ratioP2
79052;SDS011;68451;49.510;6.026;2023-05-10T00:02:07;6.93;;;4.43;;
79052;SDS011;68451;49.510;6.026;2023-05-10T00:04:33;5.55;;;3.25;;
79052;SDS011;68451;49.510;6.026;2023-05-10T00:06:58;6.05;;;4.07;;
79052;SDS011;68451;49.510;6.026;2023-05-10T00:09:24;6.03;;;3.67;;
79052;SDS011;68451;49.510;6.026;2023-05-10T00:11:50;4.93;;;3.80;;
79052;SDS011;68451;49.510;6.026;2023-05-10T00:14:15;5.60;;;3.63;;
79052;SDS011;68451;49.510;6.026;2023-05-10T00:16:41;5.78;;;3.83;;
79052;SDS011;68451;49.510;6.026;2023-05-10T00:19:06;6.40;;;4.57;;
79052;SDS011;68451;49.510;6.026;2023-05-10T00:21:32;5.03;;;3.63;;
79052;SDS011;68451;49.510;6.026;2023-05-10T00:23:58;5.18;;;4.60;;
79052;SDS011;68451;49.510;6.026;2023-05-10T00:26:24;5.65;;;4.00;;
79052;SDS011;68451;49.510;6.026;2023-05-10T00:28:50;6.57;;;4.72;;
79052;SDS011;68451;49.510;6.026;2023-05-10T00:31:16;5.93;;;4.40;;
79052;SDS011;68451;49.510;6.026;2023-05-10T00:33:41;6.78;;;5.07;;
79052;SDS011;68451;49.510;6.026;2023-05-10T00:36:07;7.07;;;5.57;;
79052;SDS011;68451;49.510;6.026;2023-05-10T00:38:32;6.20;;;4.43;;
79052;SDS011;68451;49.510;6.026;2023-05-10T00:40:58;5.80;;;4.43;;
79052;SDS011;68451;49.510;6.026;2023-05-10T00:43:24;7.00;;;5.05;;
79052;SDS011;68451;49.510;6.026;2023-05-10T00:45:49;7.32;;;5.50;;
79052;SDS011;68451;49.510;6.026;2023-05-10T00:48:15;6.10;;;4.72;;
79052;SDS011;68451;49.510;6.026;2023-05-10T00:50:40;6.80;;;5.22;;
79052;SDS011;68451;49.510;6.026;2023-05-10T00:53:06;8.82;;;5.55;;
79052;SDS011;68451;49.510;6.026;2023-05-10T00:55:32;7.07;;;4.53;;
79052;SDS011;68451;49.510;6.026;2023-05-10T00:57:58;7.15;;;4.70;;
79052;SDS011;68451;49.510;6.026;2023-05-10T01:00:23;9.07;;;4.90;;
79052;SDS011;68451;49.510;6.026;2023-05-10T01:02:49;6.47;;;4.47;;
79052;SDS011;68451;49.510;6.026;2023-05-10T01:05:15;6.60;;;4.47;;
79052;SDS011;68451;49.510;6.026;2023-05-10T01:07:40;5.78;;;4.35;;
79052;SDS011;68451;49.510;6.026;2023-05-10T01:10:06;6.72;;;4.30;;
79052;SDS011;68451;49.510;6.026;2023-05-10T01:12:34;7.13;;;4.93;;
79052;SDS011;68451;49.510;6.026;2023-05-10T01:15:02;6.97;;;4.65;;
79052;SDS011;68451;49.510;6.026;2023-05-10T01:17:30;7.43;;;5.00;;
79052;SDS011;68451;49.510;6.026;2023-05-10T01:19:56;7.50;;;5.13;;
79052;SDS011;68451;49.510;6.026;2023-05-10T01:25:29;7.32;;;5.10;;
79052;SDS011;68451;49.510;6.026;2023-05-10T01:28:25;6.65;;;4.65;;
79052;SDS011;68451;49.510;6.026;2023-05-10T01:34:19;10.63;;;4.47;;
79052;SDS011;68451;49.510;6.026;2023-05-10T01:36:54;5.97;;;4.60;;
79052;SDS011;68451;49.510;6.026;2023-05-10T01:39:30;5.65;;;4.45;;
79052;SDS011;68451;49.510;6.026;2023-05-10T01:42:08;4.28;;;2.90;;
79052;SDS011;68451;49.510;6.026;2023-05-10T01:44:37;3.42;;;2.28;;
79052;SDS011;68451;49.510;6.026;2023-05-10T01:47:09;4.15;;;1.58;;
79052;SDS011;68451;49.510;6.026;2023-05-10T01:49:38;2.63;;;1.77;;
79052;SDS011;68451;49.510;6.026;2023-05-10T01:52:08;1.35;;;1.25;;
79052;SDS011;68451;49.510;6.026;2023-05-10T01:54:41;2.42;;;1.30;;
79052;SDS011;68451;49.510;6.026;2023-05-10T01:57:09;2.83;;;1.50;;
79052;SDS011;68451;49.510;6.026;2023-05-10T01:59:39;1.50;;;1.15;;
79052;SDS011;68451;49.510;6.026;2023-05-10T02:02:08;1.95;;;1.13;;
79052;SDS011;68451;49.510;6.026;2023-05-10T02:04:37;3.55;;;1.30;;
79052;SDS011;68451;49.510;6.026;2023-05-10T02:07:05;1.85;;;1.48;;
79052;SDS011;68451;49.510;6.026;2023-05-10T02:09:32;2.92;;;1.65;;
79052;SDS011;68451;49.510;6.026;2023-05-10T02:11:58;2.05;;;1.50;;
79052;SDS011;68451;49.510;6.026;2023-05-10T02:14:27;2.53;;;1.52;;
79052;SDS011;68451;49.510;6.026;2023-05-10T02:16:55;1.98;;;1.58;;
79052;SDS011;68451;49.510;6.026;2023-05-10T02:19:23;1.85;;;1.40;;
79052;SDS011;68451;49.510;6.026;2023-05-10T02:21:50;2.30;;;1.63;;
79052;SDS011;68451;49.510;6.026;2023-05-10T02:24:17;1.73;;;1.48;;
79052;SDS011;68451;49.510;6.026;2023-05-10T02:26:44;1.40;;;1.08;;
79052;SDS011;68451;49.510;6.026;2023-05-10T02:29:12;1.38;;;1.20;;
79052;SDS011;68451;49.510;6.026;2023-05-10T02:31:40;2.08;;;1.20;;
79052;SDS011;68451;49.510;6.026;2023-05-10T02:34:08;1.52;;;1.20;;
79052;SDS011;68451;49.510;6.026;2023-05-10T02:36:36;1.95;;;1.50;;
79052;SDS011;68451;49.510;6.026;2023-05-10T02:39:04;2.88;;;1.50;;
79052;SDS011;68451;49.510;6.026;2023-05-10T02:41:35;2.97;;;1.85;;
79052;SDS011;68451;49.510;6.026;2023-05-10T02:44:02;2.30;;;1.70;;
79052;SDS011;68451;49.510;6.026;2023-05-10T02:46:30;3.15;;;1.88;;
79052;SDS011;68451;49.510;6.026;2023-05-10T02:48:56;3.15;;;2.17;;
79052;SDS011;68451;49.510;6.026;2023-05-10T02:51:23;3.55;;;2.60;;
79052;SDS011;68451;49.510;6.026;2023-05-10T02:53:50;5.27;;;2.50;;
79052;SDS011;68451;49.510;6.026;2023-05-10T02:56:20;4.53;;;2.67;;
79052;SDS011;68451;49.510;6.026;2023-05-10T02:58:53;5.15;;;2.53;;
79052;SDS011;68451;49.510;6.026;2023-05-10T03:01:20;1.85;;;1.58;;
79052;SDS011;68451;49.510;6.026;2023-05-10T03:03:46;2.92;;;2.15;;
79052;SDS011;68451;49.510;6.026;2023-05-10T03:06:11;3.03;;;1.92;;
79052;SDS011;68451;49.510;6.026;2023-05-10T03:08:36;2.28;;;1.80;;
79052;SDS011;68451;49.510;6.026;2023-05-10T03:11:09;2.90;;;1.93;;
79052;SDS011;68451;49.510;6.026;2023-05-10T03:16:46;5.03;;;2.20;;
79052;SDS011;68451;49.510;6.026;2023-05-10T03:19:21;3.93;;;2.60;;
79052;SDS011;68451;49.510;6.026;2023-05-10T03:21:52;4.47;;;3.03;;
79052;SDS011;68451;49.510;6.026;2023-05-10T03:24:20;6.23;;;2.27;;
79052;SDS011;68451;49.510;6.026;2023-05-10T03:26:48;5.20;;;2.00;;
79052;SDS011;68451;49.510;6.026;2023-05-10T03:29:15;3.38;;;1.98;;
79052;SDS011;68451;49.510;6.026;2023-05-10T03:31:42;5.22;;;2.00;;
79052;SDS011;68451;49.510;6.026;2023-05-10T03:34:07;3.13;;;1.95;;
79052;SDS011;68451;49.510;6.026;2023-05-10T03:36:33;2.13;;;1.38;;
79052;SDS011;68451;49.510;6.026;2023-05-10T03:38:59;3.00;;;1.60;;
79052;SDS011;68451;49.510;6.026;2023-05-10T03:41:24;4.82;;;1.50;;
79052;SDS011;68451;49.510;6.026;2023-05-10T03:43:50;2.13;;;1.30;;
79052;SDS011;68451;49.510;6.026;2023-05-10T03:46:16;3.13;;;2.30;;
79052;SDS011;68451;49.510;6.026;2023-05-10T03:48:42;2.20;;;1.58;;
79052;SDS011;68451;49.510;6.026;2023-05-10T03:51:07;3.90;;;1.80;;
79052;SDS011;68451;49.510;6.026;2023-05-10T03:53:33;2.65;;;1.38;;
79052;SDS011;68451;49.510;6.026;2023-05-10T03:55:58;3.47;;;1.63;;
79052;SDS011;68451;49.510;6.026;2023-05-10T03:58:24;3.53;;;1.60;;
79052;SDS011;68451;49.510;6.026;2023-05-10T04:00:50;3.00;;;1.67;;
79052;SDS011;68451;49.510;6.026;2023-05-10T04:03:16;5.40;;;1.53;;
79052;SDS011;68451;49.510;6.026;2023-05-10T04:05:42;3.60;;;1.77;;
79052;SDS011;68451;49.510;6.026;2023-05-10T04:08:07;3.73;;;1.80;;
79052;SDS011;68451;49.510;6.026;2023-05-10T04:10:33;3.20;;;2.53;;
79052;SDS011;68451;49.510;6.026;2023-05-10T04:12:58;3.67;;;2.60;;
79052;SDS011;68451;49.510;6.026;2023-05-10T04:15:24;2.87;;;1.60;;
79052;SDS011;68451;49.510;6.026;2023-05-10T04:17:49;1.80;;;1.40;;
79052;SDS011;68451;49.510;6.026;2023-05-10T04:20:15;2.70;;;1.50;;
79052;SDS011;68451;49.510;6.026;2023-05-10T04:22:41;2.60;;;1.53;;
79052;SDS011;68451;49.510;6.026;2023-05-10T04:25:06;3.97;;;2.03;;
79052;SDS011;68451;49.510;6.026;2023-05-10T04:27:32;3.45;;;1.42;;
79052;SDS011;68451;49.510;6.026;2023-05-10T04:29:58;3.10;;;2.30;;
79052;SDS011;68451;49.510;6.026;2023-05-10T04:32:24;3.65;;;3.13;;
79052;SDS011;68451;49.510;6.026;2023-05-10T04:34:49;2.60;;;1.70;;
79052;SDS011;68451;49.510;6.026;2023-05-10T04:37:16;2.70;;;1.60;;
79052;SDS011;68451;49.510;6.026;2023-05-10T04:39:42;4.17;;;2.07;;
79052;SDS011;68451;49.510;6.026;2023-05-10T04:42:07;3.30;;;1.80;;
79052;SDS011;68451;49.510;6.026;2023-05-10T04:44:33;2.95;;;1.52;;
79052;SDS011;68451;49.510;6.026;2023-05-10T04:46:58;2.47;;;1.53;;
79052;SDS011;68451;49.510;6.026;2023-05-10T04:49:24;1.27;;;1.13;;
79052;SDS011;68451;49.510;6.026;2023-05-10T04:51:49;1.40;;;1.20;;
79052;SDS011;68451;49.510;6.026;2023-05-10T04:54:15;2.45;;;1.92;;
79052;SDS011;68451;49.510;6.026;2023-05-10T04:56:41;2.60;;;1.35;;
79052;SDS011;68451;49.510;6.026;2023-05-10T04:59:06;1.77;;;1.40;;
79052;SDS011;68451;49.510;6.026;2023-05-10T05:01:32;2.47;;;1.50;;
